createdAt,value
2022-12-20T00:02:21.578Z,4.40
2022-12-20T00:07:23.318Z,4.50
2022-12-20T00:12:25.064Z,4.50
2022-12-20T00:17:26.829Z,4.50
2022-12-20T00:22:28.535Z,4.50
2022-12-20T00:27:30.218Z,4.50
2022-12-20T00:32:32.046Z,4.50
2022-12-20T00:37:33.908Z,4.30
2022-12-20T00:42:35.687Z,4.40
2022-12-20T00:47:37.362Z,4.40
2022-12-20T00:52:39.034Z,4.40
2022-12-20T00:57:40.694Z,4.40
2022-12-20T01:02:42.547Z,4.30
2022-12-20T01:07:44.267Z,4.20
2022-12-20T01:12:45.947Z,4.20
2022-12-20T01:17:48.266Z,4.40
2022-12-20T01:22:50.918Z,4.30
2022-12-20T01:32:54.837Z,4.30
2022-12-20T01:37:56.525Z,4.40
2022-12-20T01:42:58.181Z,4.40
2022-12-20T01:48:00.619Z,4.50
2022-12-20T01:53:04.322Z,4.50
2022-12-20T01:58:12.147Z,4.40
2022-12-20T02:03:15.451Z,4.50
2022-12-20T02:08:19.632Z,4.30
2022-12-20T02:13:37.199Z,4.50
2022-12-20T02:18:53.032Z,4.40
2022-12-20T02:24:34.152Z,4.30
2022-12-20T02:29:38.685Z,4.20
2022-12-20T02:34:41.613Z,4.10
2022-12-20T02:39:45.602Z,3.90
2022-12-20T02:45:15.774Z,3.80
2022-12-20T02:50:26.754Z,3.90
2022-12-20T02:55:43.256Z,4.00
2022-12-20T03:00:49.476Z,4.40
2022-12-20T03:05:55.539Z,4.10
2022-12-20T03:10:57.301Z,4.10
2022-12-20T03:15:58.972Z,4.10
2022-12-20T03:21:00.717Z,4.10
2022-12-20T03:26:02.487Z,4.10
2022-12-20T03:36:06.720Z,4.00
2022-12-20T03:41:08.420Z,4.00
2022-12-20T03:46:10.103Z,4.20
2022-12-20T03:51:12.016Z,5.50
2022-12-20T03:56:14.040Z,7.90
2022-12-20T04:01:21.423Z,4.20
2022-12-20T04:06:24.090Z,4.20
2022-12-20T04:11:25.851Z,4.20
2022-12-20T04:16:29.845Z,4.20
2022-12-20T04:21:34.574Z,3.90
2022-12-20T04:26:36.829Z,4.00
2022-12-20T04:31:38.523Z,4.20
2022-12-20T04:36:40.285Z,4.20
2022-12-20T04:41:42.024Z,4.80
2022-12-20T04:46:44.997Z,4.50
2022-12-20T04:51:46.688Z,4.50
2022-12-20T04:56:48.348Z,4.60
2022-12-20T05:01:50.083Z,6.40
2022-12-20T05:06:51.893Z,4.50
2022-12-20T05:16:55.762Z,4.50
2022-12-20T05:22:16.083Z,4.50
2022-12-20T05:27:17.808Z,4.70
2022-12-20T05:32:19.498Z,4.70
2022-12-20T05:37:21.255Z,4.70
2022-12-20T05:47:25.041Z,4.60
2022-12-20T05:52:26.932Z,4.70
2022-12-20T05:57:28.643Z,4.50
2022-12-20T06:07:32.891Z,4.60
2022-12-20T06:12:35.280Z,4.70
2022-12-20T06:17:36.996Z,4.80
2022-12-20T06:22:38.719Z,4.80
2022-12-20T06:27:40.709Z,4.80
2022-12-20T06:32:42.439Z,4.90
2022-12-20T06:37:44.274Z,4.80
2022-12-20T06:42:46.210Z,4.80
2022-12-20T06:47:47.858Z,4.90
2022-12-20T06:52:49.518Z,8.60
2022-12-20T07:02:53.410Z,4.90
2022-12-20T07:07:55.180Z,5.00
2022-12-20T07:12:56.855Z,4.90
2022-12-20T07:17:58.500Z,4.80
2022-12-20T07:23:00.191Z,4.90
2022-12-20T07:28:03.062Z,5.00
2022-12-20T07:33:04.811Z,5.00
2022-12-20T07:38:07.501Z,5.10
2022-12-20T07:43:10.243Z,4.90
2022-12-20T07:48:16.400Z,5.20
2022-12-20T07:53:23.476Z,5.10
2022-12-20T07:58:25.562Z,5.10
2022-12-20T08:03:35.490Z,5.20
2022-12-20T08:08:42.524Z,5.20
2022-12-20T08:13:46.820Z,7.50
2022-12-20T08:18:49.128Z,8.10
2022-12-20T08:28:55.128Z,5.50
2022-12-20T08:39:01.807Z,5.50
2022-12-20T08:44:07.006Z,5.60
2022-12-20T08:49:08.731Z,7.20
2022-12-20T08:54:10.438Z,6.90
2022-12-20T09:09:17.104Z,5.50
2022-12-20T09:14:19.675Z,5.40
2022-12-20T09:19:21.482Z,5.50
2022-12-20T09:29:29.732Z,5.70
2022-12-20T09:34:37.037Z,5.50
2022-12-20T09:44:42.254Z,6.00
2022-12-20T09:49:48.428Z,5.90
2022-12-20T09:55:08.700Z,6.00
2022-12-20T10:00:15.483Z,5.90
2022-12-20T10:05:26.578Z,6.20
2022-12-20T10:11:03.631Z,5.20
2022-12-20T10:16:29.392Z,6.20
2022-12-20T10:21:52.915Z,6.40
2022-12-20T10:26:54.956Z,6.30
2022-12-20T10:32:01.015Z,6.80
2022-12-20T10:37:18.894Z,10.10
2022-12-20T10:42:42.394Z,6.90
2022-12-20T10:47:46.433Z,6.90
2022-12-20T10:53:12.251Z,7.00
2022-12-20T10:58:17.743Z,7.00
2022-12-20T11:03:23.289Z,7.00
2022-12-20T11:08:50.124Z,9.80
2022-12-20T11:13:51.698Z,7.50
2022-12-20T11:19:14.059Z,6.80
2022-12-20T11:24:33.017Z,6.60
2022-12-20T11:29:49.380Z,6.90
2022-12-20T11:35:18.322Z,7.10
2022-12-20T11:40:46.146Z,7.10
2022-12-20T11:46:09.293Z,7.00
2022-12-20T11:51:22.811Z,7.10
2022-12-20T11:56:43.611Z,7.00
2022-12-20T12:02:20.811Z,8.10
2022-12-20T12:07:28.776Z,6.70
2022-12-20T12:13:12.404Z,7.10
2022-12-20T12:18:23.786Z,7.30
2022-12-20T12:23:28.566Z,7.30
2022-12-20T12:28:30.371Z,7.30
2022-12-20T12:33:39.075Z,7.50
2022-12-20T12:39:03.117Z,7.50
2022-12-20T12:44:27.093Z,7.50
2022-12-20T12:49:31.961Z,7.50
2022-12-20T12:54:41.390Z,7.40
2022-12-20T12:59:48.286Z,7.40
2022-12-20T13:05:25.704Z,7.50
2022-12-20T13:10:31.419Z,7.70
2022-12-20T13:15:33.182Z,7.80
2022-12-20T13:20:36.623Z,8.10
2022-12-20T13:25:48.371Z,8.50
2022-12-20T13:31:02.542Z,8.60
2022-12-20T13:36:12.089Z,9.10
2022-12-20T13:41:31.130Z,9.10
2022-12-20T13:46:54.796Z,8.80
2022-12-20T13:52:11.540Z,8.50
2022-12-20T13:57:17.585Z,8.10
2022-12-20T14:02:26.505Z,8.10
2022-12-20T14:07:30.848Z,9.60
2022-12-20T14:12:36.796Z,7.90
2022-12-20T14:17:44.534Z,10.10
2022-12-20T14:23:04.515Z,7.90
2022-12-20T14:28:26.993Z,7.90
2022-12-20T14:33:36.402Z,9.30
2022-12-20T14:38:40.247Z,9.00
2022-12-20T14:48:45.017Z,9.10
2022-12-20T14:53:48.700Z,9.20
2022-12-20T14:59:05.059Z,7.80
2022-12-20T15:04:25.355Z,7.50
2022-12-20T15:09:27.269Z,7.40
2022-12-20T15:14:40.787Z,7.60
2022-12-20T15:19:43.218Z,7.70
2022-12-20T15:24:44.984Z,7.60
2022-12-20T15:29:46.737Z,8.20
2022-12-20T15:34:48.777Z,7.30
2022-12-20T15:39:50.525Z,7.30
2022-12-20T15:44:52.267Z,7.40
2022-12-20T15:49:53.937Z,7.40
2022-12-20T15:54:55.834Z,7.30
2022-12-20T16:00:00.528Z,7.40
2022-12-20T16:05:04.107Z,8.90
2022-12-20T16:10:08.786Z,7.40
2022-12-20T16:15:21.747Z,7.40
2022-12-20T16:20:23.503Z,7.40
2022-12-20T16:25:36.410Z,7.40
2022-12-20T16:30:38.390Z,7.20
2022-12-20T16:35:40.054Z,7.30
2022-12-20T16:40:41.752Z,7.20
2022-12-20T16:45:43.600Z,7.20
2022-12-20T16:50:45.399Z,7.10
2022-12-20T16:55:47.048Z,7.00
2022-12-20T17:00:48.791Z,6.90
2022-12-20T17:05:51.587Z,6.90
2022-12-20T17:10:53.290Z,6.70
2022-12-20T17:15:54.975Z,6.70
2022-12-20T17:20:56.775Z,6.90
2022-12-20T17:25:58.434Z,6.80
2022-12-20T17:31:07.610Z,6.80
2022-12-20T17:36:10.048Z,6.70
2022-12-20T17:41:23.495Z,5.00
2022-12-20T17:46:26.296Z,7.10
2022-12-20T17:51:30.226Z,7.00
2022-12-20T17:56:36.913Z,6.90
2022-12-20T18:01:39.159Z,6.80
2022-12-20T18:06:42.493Z,6.90
2022-12-20T18:11:44.803Z,6.80
2022-12-20T18:16:46.541Z,6.90
2022-12-20T18:21:48.320Z,6.90
2022-12-20T18:26:50.105Z,6.90
2022-12-20T18:31:51.861Z,6.70
2022-12-20T18:36:53.655Z,6.70
2022-12-20T18:41:55.304Z,6.70
2022-12-20T18:46:56.949Z,6.80
2022-12-20T18:52:00.055Z,8.50
2022-12-20T18:57:01.883Z,6.80
2022-12-20T19:02:04.111Z,6.60
2022-12-20T19:07:06.120Z,9.40
2022-12-20T19:12:07.833Z,6.50
2022-12-20T19:17:09.547Z,6.60
2022-12-20T19:22:11.396Z,6.60
2022-12-20T19:32:18.102Z,6.70
2022-12-20T19:37:19.866Z,9.10
2022-12-20T19:42:24.590Z,6.70
2022-12-20T19:47:29.209Z,6.70
2022-12-20T19:52:30.957Z,6.50
2022-12-20T19:57:33.664Z,7.40
2022-12-20T20:02:35.560Z,6.50
2022-12-20T20:07:37.473Z,7.20
2022-12-20T20:12:39.659Z,6.80
2022-12-20T20:17:41.338Z,6.70
2022-12-20T20:32:47.820Z,6.50
2022-12-20T20:37:49.590Z,6.50
2022-12-20T20:42:51.685Z,7.90
2022-12-20T20:47:53.554Z,6.70
2022-12-20T20:52:55.272Z,6.90
2022-12-20T20:57:56.949Z,6.90
2022-12-20T21:02:59.770Z,6.90
2022-12-20T21:08:01.729Z,6.90
2022-12-20T21:13:04.611Z,7.00
2022-12-20T21:18:06.410Z,7.80
2022-12-20T21:23:08.236Z,6.80
2022-12-20T21:28:13.952Z,6.80
2022-12-20T21:33:18.001Z,6.70
2022-12-20T21:38:19.698Z,6.70
2022-12-20T21:43:21.379Z,6.80
2022-12-20T21:48:23.772Z,7.40
2022-12-20T21:53:25.566Z,6.80
2022-12-20T21:58:29.296Z,7.00
2022-12-20T22:03:31.461Z,8.10
2022-12-20T22:08:33.961Z,6.70
2022-12-20T22:13:41.162Z,6.70
2022-12-20T22:18:48.236Z,6.90
2022-12-20T22:23:50.353Z,6.80
2022-12-20T22:28:57.429Z,6.70
2022-12-20T22:33:59.658Z,6.80
2022-12-20T22:39:01.387Z,6.80
2022-12-20T22:44:04.010Z,6.80
2022-12-20T22:49:05.762Z,6.80
2022-12-20T22:54:07.445Z,6.90
2022-12-20T22:59:09.174Z,7.10
2022-12-20T23:04:10.811Z,6.70
2022-12-20T23:09:12.541Z,6.90
2022-12-20T23:14:38.157Z,6.80
2022-12-20T23:19:58.514Z,6.70
2022-12-20T23:25:00.456Z,6.80
2022-12-20T23:30:04.377Z,6.60
2022-12-20T23:35:12.274Z,6.60
2022-12-20T23:40:16.368Z,6.90
2022-12-20T23:45:18.054Z,7.00
2022-12-20T23:50:19.983Z,7.00
2022-12-20T23:55:21.739Z,7.90
